Hansen Road, Wisconsin
Current Conditions -  °F | °C
As of 10:53 PM on Friday 28 Nov 2014 (Local Time) from KGRB Reporting Station
Haze Haze  
Wind Chill: 24°   Ceiling: 1300
Heat Index: 24°   Visibility: 4mi
Dew Point: 22°   Wind: 0mph
Humidity: 91%   Direction: NA
Pressure: 29.87"   Gusts: NA
Location:  44.48°N, 88.0192°W
Report Text: KGRB 290453Z 00000KT 4SM BR BKN013 OVC022 M04/M06 A2987 RMK AO2 SLP128 T10441056
Loading
Personal Weather Stations






























Interactive Weather Map New forecast layout! Learn more

10-Day Weather Forecast

Advertisements
Track Severe Weather on mobile